createdAt,value
2023-03-02T00:00:15.351Z,33.75
2023-03-02T00:05:16.969Z,35.33
2023-03-02T00:10:18.513Z,33.00
2023-03-02T00:15:20.028Z,31.10
2023-03-02T00:20:21.571Z,33.00
2023-03-02T00:25:23.316Z,34.30
2023-03-02T00:30:24.836Z,31.88
2023-03-02T00:35:27.096Z,34.03
2023-03-02T00:40:28.624Z,31.30
2023-03-02T00:45:30.411Z,32.53
2023-03-02T00:50:32.022Z,32.45
2023-03-02T00:55:33.620Z,32.70
2023-03-02T01:00:37.106Z,27.95
2023-03-02T01:05:38.802Z,30.58
2023-03-02T01:10:40.540Z,28.77
2023-03-02T01:15:42.063Z,29.08
2023-03-02T01:20:43.600Z,28.85
2023-03-02T01:25:45.161Z,27.95
2023-03-02T01:30:47.771Z,26.88
2023-03-02T01:35:49.577Z,25.77
2023-03-02T01:40:51.122Z,23.42
2023-03-02T01:45:57.409Z,25.05
2023-03-02T01:51:02.053Z,25.05
2023-03-02T01:56:04.820Z,25.17
2023-03-02T02:01:15.252Z,25.27
2023-03-02T02:06:25.006Z,24.00
2023-03-02T02:11:26.756Z,20.30
2023-03-02T02:16:31.678Z,23.33
2023-03-02T02:21:34.278Z,23.35
2023-03-02T02:26:41.854Z,24.63
2023-03-02T02:31:48.298Z,23.33
2023-03-02T02:36:56.076Z,17.35
2023-03-02T02:42:02.853Z,23.00
2023-03-02T02:47:15.011Z,23.70
2023-03-02T02:52:19.723Z,22.25
2023-03-02T02:57:25.422Z,24.35
2023-03-02T03:02:30.858Z,25.13
2023-03-02T03:07:32.769Z,26.20
2023-03-02T03:12:35.284Z,26.60
2023-03-02T03:17:36.832Z,25.85
2023-03-02T03:22:38.767Z,26.25
2023-03-02T03:27:42.719Z,27.98
2023-03-02T03:32:44.548Z,28.38
2023-03-02T03:37:48.539Z,26.20
2023-03-02T03:42:50.101Z,25.60
2023-03-02T03:47:51.605Z,27.60
2023-03-02T03:52:53.122Z,25.40
2023-03-02T03:57:55.363Z,27.35
2023-03-02T04:02:56.976Z,28.98
2023-03-02T04:08:02.090Z,28.65
2023-03-02T04:13:04.348Z,28.77
2023-03-02T04:18:05.959Z,28.98
2023-03-02T04:23:07.507Z,28.10
2023-03-02T04:28:09.063Z,29.25
2023-03-02T04:33:11.132Z,29.45
2023-03-02T04:38:14.012Z,29.65
2023-03-02T04:43:15.535Z,31.25
2023-03-02T04:48:17.263Z,31.60
2023-03-02T04:53:18.820Z,31.55
2023-03-02T04:58:20.502Z,32.00
2023-03-02T05:03:22.048Z,32.50
2023-03-02T05:08:24.355Z,31.33
2023-03-02T05:13:26.642Z,30.75
2023-03-02T05:18:28.195Z,32.40
2023-03-02T05:23:31.554Z,24.88
2023-03-02T05:28:33.405Z,31.05
2023-03-02T05:33:35.052Z,31.70
2023-03-02T05:38:36.758Z,29.98
2023-03-02T05:43:39.520Z,29.60
2023-03-02T05:48:42.176Z,29.38
2023-03-02T05:53:43.784Z,28.48
2023-03-02T05:58:45.308Z,30.92
2023-03-02T06:03:46.820Z,31.05
2023-03-02T06:08:48.332Z,29.83
2023-03-02T06:13:49.882Z,30.40
2023-03-02T06:18:51.440Z,32.38
2023-03-02T06:23:52.974Z,30.85
2023-03-02T06:28:54.469Z,31.33
2023-03-02T06:33:56.046Z,29.13
2023-03-02T06:38:57.596Z,28.00
2023-03-02T06:44:00.739Z,27.92
2023-03-02T06:49:02.520Z,30.08
2023-03-02T06:54:06.922Z,32.47
2023-03-02T06:59:08.784Z,29.90
2023-03-02T07:04:10.305Z,31.30
2023-03-02T07:09:11.837Z,32.40
2023-03-02T07:14:13.339Z,31.52
2023-03-02T07:19:14.964Z,31.30
2023-03-02T07:24:16.717Z,30.10
2023-03-02T07:29:18.252Z,33.35
2023-03-02T07:34:19.742Z,31.92
2023-03-02T07:39:21.468Z,34.03
2023-03-02T07:44:22.964Z,30.90
2023-03-02T07:49:24.691Z,32.10
2023-03-02T07:54:27.768Z,28.92
2023-03-02T07:59:29.450Z,30.83
2023-03-02T08:04:31.791Z,29.98
2023-03-02T08:09:33.330Z,30.88
2023-03-02T08:14:34.926Z,29.42
2023-03-02T08:19:36.567Z,30.40
2023-03-02T08:24:40.274Z,32.63
2023-03-02T08:29:42.328Z,31.98
2023-03-02T08:34:43.848Z,32.78
2023-03-02T08:39:45.369Z,31.02
2023-03-02T08:44:46.860Z,31.02
2023-03-02T08:49:49.833Z,28.88
2023-03-02T08:54:51.442Z,27.55
2023-03-02T08:59:53.064Z,33.95
2023-03-02T09:04:55.765Z,35.08
2023-03-02T09:09:57.392Z,35.00
2023-03-02T09:14:58.886Z,32.17
2023-03-02T09:20:00.452Z,31.30
2023-03-02T09:25:03.768Z,31.10
2023-03-02T09:30:05.889Z,31.75
2023-03-02T09:35:08.557Z,25.77
2023-03-02T09:40:20.514Z,31.10
2023-03-02T09:45:33.527Z,32.17
2023-03-02T09:50:39.493Z,30.40
2023-03-02T09:55:41.053Z,28.85
2023-03-02T10:00:44.966Z,29.00
2023-03-02T10:05:49.026Z,26.73
2023-03-02T10:10:58.079Z,30.23
2023-03-02T10:16:24.681Z,28.90
2023-03-02T10:21:58.120Z,28.92
2023-03-02T10:27:17.858Z,26.73
2023-03-02T10:32:24.416Z,29.88
2023-03-02T10:37:30.106Z,29.45
2023-03-02T10:42:37.727Z,28.63
2023-03-02T10:47:39.263Z,28.73
2023-03-02T10:52:59.520Z,28.60
2023-03-02T10:58:31.171Z,27.13
2023-03-02T11:03:34.562Z,28.95
2023-03-02T11:08:36.137Z,27.67
2023-03-02T11:13:39.182Z,27.60
2023-03-02T11:18:48.668Z,26.83
2023-03-02T11:24:06.130Z,26.50
2023-03-02T11:29:22.961Z,26.43
2023-03-02T11:34:36.369Z,26.15
2023-03-02T11:39:56.306Z,25.77
2023-03-02T11:45:02.566Z,26.60
2023-03-02T11:50:06.878Z,26.10
2023-03-02T11:55:22.607Z,24.65
2023-03-02T12:00:42.388Z,23.52
2023-03-02T12:05:47.064Z,23.63
2023-03-02T12:10:59.638Z,22.77
2023-03-02T12:16:01.862Z,23.40
2023-03-02T12:21:11.437Z,24.55
2023-03-02T12:26:22.014Z,23.63
2023-03-02T12:31:24.248Z,23.77
2023-03-02T12:36:32.277Z,25.65
2023-03-02T12:42:08.374Z,24.10
2023-03-02T12:47:16.698Z,24.08
2023-03-02T12:52:23.882Z,25.98
2023-03-02T12:57:25.748Z,25.05
2023-03-02T13:02:30.142Z,24.80
2023-03-02T13:07:44.302Z,25.38
2023-03-02T13:12:46.378Z,25.88
2023-03-02T13:17:59.648Z,25.52
2023-03-02T13:23:01.602Z,26.65
2023-03-02T13:28:08.088Z,28.50
2023-03-02T13:33:22.433Z,25.67
2023-03-02T13:38:32.732Z,24.42
2023-03-02T13:43:37.948Z,23.65
2023-03-02T13:48:39.516Z,23.90
2023-03-02T13:53:45.510Z,24.15
2023-03-02T13:58:47.499Z,24.27
2023-03-02T14:03:49.142Z,24.13
2023-03-02T14:08:50.696Z,23.15
2023-03-02T14:13:54.955Z,21.27
2023-03-02T14:18:56.550Z,20.05
2023-03-02T14:23:59.049Z,19.85
2023-03-02T14:29:07.740Z,17.88
2023-03-02T14:34:12.678Z,18.27
2023-03-02T14:39:22.254Z,18.27
2023-03-02T14:44:23.861Z,16.25
2023-03-02T14:49:25.586Z,15.30
2023-03-02T14:54:30.808Z,16.77
2023-03-02T14:59:32.380Z,13.82
2023-03-02T15:04:34.703Z,13.63
2023-03-02T15:09:36.242Z,14.15
2023-03-02T15:14:38.064Z,13.30
2023-03-02T15:19:39.593Z,12.35
2023-03-02T15:24:41.468Z,12.90
2023-03-02T15:29:47.109Z,14.10
2023-03-02T15:34:48.682Z,16.60
2023-03-02T15:39:55.363Z,17.65
2023-03-02T15:44:57.114Z,17.40
2023-03-02T15:49:58.699Z,15.95
2023-03-02T15:55:04.295Z,14.68
2023-03-02T16:00:08.378Z,15.07
2023-03-02T16:05:10.459Z,15.05
2023-03-02T16:10:15.370Z,13.68
2023-03-02T16:15:17.062Z,14.40
2023-03-02T16:20:18.798Z,12.88
2023-03-02T16:25:20.648Z,11.75
2023-03-02T16:30:23.579Z,11.80
2023-03-02T16:35:25.983Z,12.35
2023-03-02T16:40:28.085Z,13.60
2023-03-02T16:45:32.680Z,13.25
2023-03-02T16:50:34.380Z,13.65
2023-03-02T16:55:39.194Z,12.63
2023-03-02T17:00:42.617Z,11.73
2023-03-02T17:05:44.404Z,10.55
2023-03-02T17:10:46.026Z,9.70
2023-03-02T17:15:48.092Z,10.30
2023-03-02T17:20:54.402Z,9.23
2023-03-02T17:25:58.547Z,9.07
2023-03-02T17:31:01.926Z,9.70
2023-03-02T17:36:07.468Z,9.07
2023-03-02T17:41:10.968Z,10.20
2023-03-02T17:46:22.717Z,10.45
2023-03-02T17:51:26.011Z,10.00
2023-03-02T17:56:27.992Z,10.00
2023-03-02T18:01:29.969Z,10.07
2023-03-02T18:06:31.511Z,9.82
2023-03-02T18:11:33.366Z,10.98
2023-03-02T18:16:35.557Z,12.95
2023-03-02T18:21:39.716Z,13.35
2023-03-02T18:26:41.654Z,11.55
2023-03-02T18:31:43.372Z,10.15
2023-03-02T18:36:45.035Z,10.57
2023-03-02T18:41:47.045Z,9.52
2023-03-02T18:46:48.556Z,10.52
2023-03-02T18:51:50.159Z,9.68
2023-03-02T18:56:51.793Z,10.40
2023-03-02T19:01:53.296Z,9.48
2023-03-02T19:07:00.660Z,10.02
2023-03-02T19:12:02.451Z,9.88
2023-03-02T19:17:04.022Z,10.30
2023-03-02T19:22:06.461Z,10.43
2023-03-02T19:27:09.713Z,9.50
2023-03-02T19:32:14.738Z,10.70
2023-03-02T19:37:16.581Z,10.82
2023-03-02T19:42:18.048Z,10.75
2023-03-02T19:47:19.562Z,12.20
2023-03-02T19:52:21.080Z,11.80
2023-03-02T19:57:24.954Z,13.27
2023-03-02T20:02:26.830Z,13.25
2023-03-02T20:07:28.519Z,13.60
2023-03-02T20:12:30.047Z,15.02
2023-03-02T20:17:31.626Z,13.13
2023-03-02T20:22:33.195Z,12.85
2023-03-02T20:27:34.735Z,13.65
2023-03-02T20:32:36.258Z,16.35
2023-03-02T20:37:38.240Z,13.77
2023-03-02T20:42:41.234Z,13.65
2023-03-02T20:47:44.208Z,12.55
2023-03-02T20:52:45.739Z,13.60
2023-03-02T20:57:48.592Z,12.95
2023-03-02T21:02:50.115Z,13.98
2023-03-02T21:07:51.766Z,13.63
2023-03-02T21:12:53.315Z,14.13
2023-03-02T21:17:56.473Z,13.82
2023-03-02T21:22:59.536Z,16.13
2023-03-02T21:28:01.647Z,16.55
2023-03-02T21:33:03.498Z,14.85
2023-03-02T21:38:05.509Z,13.95
2023-03-02T21:43:07.441Z,12.73
2023-03-02T21:48:09.070Z,11.45
2023-03-02T21:53:10.600Z,12.73
2023-03-02T21:58:12.525Z,11.77
2023-03-02T22:03:15.034Z,10.75
2023-03-02T22:08:18.512Z,12.05
2023-03-02T22:13:26.314Z,10.48
2023-03-02T22:23:29.384Z,8.65
2023-03-02T22:28:30.848Z,8.65
2023-03-02T22:33:33.902Z,8.10
2023-03-02T22:38:35.518Z,7.57
2023-03-02T22:43:37.005Z,7.30
2023-03-02T22:48:38.649Z,6.68
2023-03-02T22:53:49.225Z,5.30
2023-03-02T22:58:51.861Z,5.07
2023-03-02T23:03:57.120Z,5.05
2023-03-02T23:09:04.226Z,5.47
2023-03-02T23:14:49.401Z,3.87
2023-03-02T23:19:51.311Z,3.92
2023-03-02T23:24:52.847Z,4.20
2023-03-02T23:29:54.443Z,4.50
2023-03-02T23:34:56.396Z,4.07
2023-03-02T23:39:57.877Z,4.13
2023-03-02T23:44:59.384Z,3.83
2023-03-02T23:50:00.915Z,3.60
2023-03-02T23:55:02.464Z,3.78
